Ipiranga, Brazil
Current Conditions -  °F | °C
As of 7:00 AM on Friday 24 Oct 2014 (Local Time) from SBBI Reporting Station
Haze Haze  
Wind Chill: 59°   Ceiling: 200
Heat Index: 59°   Visibility: 0.68mi
Dew Point: 57°   Wind: 3mph
Humidity: 94%   Direction: 70°ENE
Pressure: 30.09"   Gusts: NA
Location:  25.02°S, 50.58°W
Report Text: SBBI 240900Z 07003KT 1100 BR SCT001 BKN002 OVC003 15/14 Q1019
Loading
Personal Weather Stations






























Interactive Weather Map
Tropical Storm Tracking
New forecast layout! Learn more

10-Day Weather Forecast

Advertisements
Track Severe Weather on mobile